sensor_id;sensor_type;location;lat;lon;timestamp;temperature;humidity
60727;DHT22;46577;49.004;12.120;2023-05-10T00:00:14;15.10;80.40
60727;DHT22;46577;49.004;12.120;2023-05-10T00:02:40;15.10;79.70
60727;DHT22;46577;49.004;12.120;2023-05-10T00:05:06;15.10;79.40
60727;DHT22;46577;49.004;12.120;2023-05-10T00:07:32;15.20;79.50
60727;DHT22;46577;49.004;12.120;2023-05-10T00:09:58;15.20;80.90
60727;DHT22;46577;49.004;12.120;2023-05-10T00:12:23;15.10;80.40
60727;DHT22;46577;49.004;12.120;2023-05-10T00:14:49;15.10;81.20
60727;DHT22;46577;49.004;12.120;2023-05-10T00:17:14;15.10;81.10
60727;DHT22;46577;49.004;12.120;2023-05-10T00:19:40;15.20;80.90
60727;DHT22;46577;49.004;12.120;2023-05-10T00:22:06;15.20;81.10
60727;DHT22;46577;49.004;12.120;2023-05-10T00:24:31;15.20;81.10
60727;DHT22;46577;49.004;12.120;2023-05-10T00:26:57;15.20;81.20
60727;DHT22;46577;49.004;12.120;2023-05-10T00:29:22;15.20;81.40
60727;DHT22;46577;49.004;12.120;2023-05-10T00:31:48;15.20;81.30
60727;DHT22;46577;49.004;12.120;2023-05-10T00:34:13;15.00;81.80
60727;DHT22;46577;49.004;12.120;2023-05-10T00:36:39;15.00;82.40
60727;DHT22;46577;49.004;12.120;2023-05-10T00:39:05;15.00;82.50
60727;DHT22;46577;49.004;12.120;2023-05-10T00:41:30;15.00;82.90
60727;DHT22;46577;49.004;12.120;2023-05-10T00:43:58;15.00;83.00
60727;DHT22;46577;49.004;12.120;2023-05-10T00:46:24;14.90;83.50
60727;DHT22;46577;49.004;12.120;2023-05-10T00:48:51;14.90;83.80
60727;DHT22;46577;49.004;12.120;2023-05-10T00:51:17;14.80;83.90
60727;DHT22;46577;49.004;12.120;2023-05-10T00:53:44;14.80;83.90
60727;DHT22;46577;49.004;12.120;2023-05-10T00:56:11;14.80;84.40
60727;DHT22;46577;49.004;12.120;2023-05-10T00:58:37;14.90;84.70
60727;DHT22;46577;49.004;12.120;2023-05-10T01:01:04;14.80;84.90
60727;DHT22;46577;49.004;12.120;2023-05-10T01:03:30;14.80;85.20
60727;DHT22;46577;49.004;12.120;2023-05-10T01:05:56;14.80;85.50
60727;DHT22;46577;49.004;12.120;2023-05-10T01:08:22;14.80;85.60
60727;DHT22;46577;49.004;12.120;2023-05-10T01:10:48;14.80;85.60
60727;DHT22;46577;49.004;12.120;2023-05-10T01:13:23;14.90;86.00
60727;DHT22;46577;49.004;12.120;2023-05-10T01:15:51;14.90;86.10
60727;DHT22;46577;49.004;12.120;2023-05-10T01:18:20;14.90;86.60
60727;DHT22;46577;49.004;12.120;2023-05-10T01:20:48;14.90;86.70
60727;DHT22;46577;49.004;12.120;2023-05-10T01:23:25;14.90;86.60
60727;DHT22;46577;49.004;12.120;2023-05-10T01:37:28;14.90;88.30
60727;DHT22;46577;49.004;12.120;2023-05-10T01:42:31;14.80;88.30
60727;DHT22;46577;49.004;12.120;2023-05-10T01:45:09;14.80;88.50
60727;DHT22;46577;49.004;12.120;2023-05-10T01:50:45;14.80;89.70
60727;DHT22;46577;49.004;12.120;2023-05-10T01:53:13;14.80;89.20
60727;DHT22;46577;49.004;12.120;2023-05-10T01:55:44;14.90;88.90
60727;DHT22;46577;49.004;12.120;2023-05-10T01:58:18;15.00;89.30
60727;DHT22;46577;49.004;12.120;2023-05-10T02:00:46;15.00;89.00
60727;DHT22;46577;49.004;12.120;2023-05-10T02:03:13;15.00;89.50
60727;DHT22;46577;49.004;12.120;2023-05-10T02:05:41;15.00;90.00
60727;DHT22;46577;49.004;12.120;2023-05-10T02:08:09;15.00;89.80
60727;DHT22;46577;49.004;12.120;2023-05-10T02:10:36;15.00;89.50
60727;DHT22;46577;49.004;12.120;2023-05-10T02:13:03;14.80;90.60
60727;DHT22;46577;49.004;12.120;2023-05-10T02:15:32;14.90;90.60
60727;DHT22;46577;49.004;12.120;2023-05-10T02:17:59;14.80;90.80
60727;DHT22;46577;49.004;12.120;2023-05-10T02:20:27;14.70;91.40
60727;DHT22;46577;49.004;12.120;2023-05-10T02:22:55;14.70;91.70
60727;DHT22;46577;49.004;12.120;2023-05-10T02:25:23;14.60;92.00
60727;DHT22;46577;49.004;12.120;2023-05-10T02:27:50;14.60;92.30
60727;DHT22;46577;49.004;12.120;2023-05-10T02:30:18;14.50;92.50
60727;DHT22;46577;49.004;12.120;2023-05-10T02:32:44;14.50;92.90
60727;DHT22;46577;49.004;12.120;2023-05-10T02:35:11;14.50;93.40
60727;DHT22;46577;49.004;12.120;2023-05-10T02:37:37;14.50;93.50
60727;DHT22;46577;49.004;12.120;2023-05-10T02:40:05;14.40;93.70
60727;DHT22;46577;49.004;12.120;2023-05-10T02:42:33;14.50;94.00
60727;DHT22;46577;49.004;12.120;2023-05-10T02:45:01;14.50;93.90
60727;DHT22;46577;49.004;12.120;2023-05-10T02:47:28;14.50;94.20
60727;DHT22;46577;49.004;12.120;2023-05-10T02:49:54;14.40;94.50
60727;DHT22;46577;49.004;12.120;2023-05-10T02:52:24;14.40;95.20
60727;DHT22;46577;49.004;12.120;2023-05-10T02:54:55;14.40;95.50
60727;DHT22;46577;49.004;12.120;2023-05-10T02:57:33;14.50;95.90
60727;DHT22;46577;49.004;12.120;2023-05-10T02:59:59;14.40;96.80
60727;DHT22;46577;49.004;12.120;2023-05-10T03:02:26;14.40;97.00
60727;DHT22;46577;49.004;12.120;2023-05-10T03:04:52;14.40;97.30
60727;DHT22;46577;49.004;12.120;2023-05-10T03:07:18;14.30;97.60
60727;DHT22;46577;49.004;12.120;2023-05-10T03:09:47;14.40;97.70
60727;DHT22;46577;49.004;12.120;2023-05-10T03:18:10;14.30;99.80
60727;DHT22;46577;49.004;12.120;2023-05-10T03:20:48;14.30;99.90
60727;DHT22;46577;49.004;12.120;2023-05-10T03:25:44;14.20;99.90
60727;DHT22;46577;49.004;12.120;2023-05-10T03:28:12;14.10;99.90
60727;DHT22;46577;49.004;12.120;2023-05-10T03:30:40;14.10;99.90
60727;DHT22;46577;49.004;12.120;2023-05-10T03:33:06;14.20;99.90
60727;DHT22;46577;49.004;12.120;2023-05-10T03:35:32;14.10;99.90
60727;DHT22;46577;49.004;12.120;2023-05-10T03:37:57;14.00;99.90
60727;DHT22;46577;49.004;12.120;2023-05-10T03:40:24;13.90;99.90
60727;DHT22;46577;49.004;12.120;2023-05-10T03:42:49;14.00;99.90
60727;DHT22;46577;49.004;12.120;2023-05-10T03:45:15;14.00;99.90
60727;DHT22;46577;49.004;12.120;2023-05-10T03:47:41;13.90;99.90
60727;DHT22;46577;49.004;12.120;2023-05-10T03:50:07;13.90;99.90
60727;DHT22;46577;49.004;12.120;2023-05-10T03:52:32;13.90;99.90
60727;DHT22;46577;49.004;12.120;2023-05-10T03:54:58;14.00;99.90
60727;DHT22;46577;49.004;12.120;2023-05-10T03:57:24;13.90;99.90
60727;DHT22;46577;49.004;12.120;2023-05-10T03:59:50;13.70;99.90
60727;DHT22;46577;49.004;12.120;2023-05-10T04:02:15;13.70;99.90
60727;DHT22;46577;49.004;12.120;2023-05-10T04:04:41;13.80;99.90
60727;DHT22;46577;49.004;12.120;2023-05-10T04:07:07;13.80;99.90
60727;DHT22;46577;49.004;12.120;2023-05-10T04:09:32;13.80;99.90
60727;DHT22;46577;49.004;12.120;2023-05-10T04:11:59;13.80;99.90
60727;DHT22;46577;49.004;12.120;2023-05-10T04:14:26;13.90;99.90
60727;DHT22;46577;49.004;12.120;2023-05-10T04:16:51;13.80;99.90
60727;DHT22;46577;49.004;12.120;2023-05-10T04:19:17;13.80;99.90
60727;DHT22;46577;49.004;12.120;2023-05-10T04:21:42;13.80;99.90
60727;DHT22;46577;49.004;12.120;2023-05-10T04:24:08;13.80;99.90
60727;DHT22;46577;49.004;12.120;2023-05-10T04:26:33;13.80;99.90
60727;DHT22;46577;49.004;12.120;2023-05-10T04:28:59;13.60;99.90
60727;DHT22;46577;49.004;12.120;2023-05-10T04:31:25;13.50;99.90
60727;DHT22;46577;49.004;12.120;2023-05-10T04:33:51;13.50;99.90
60727;DHT22;46577;49.004;12.120;2023-05-10T04:36:16;13.60;99.90
60727;DHT22;46577;49.004;12.120;2023-05-10T04:38:42;13.50;99.90
60727;DHT22;46577;49.004;12.120;2023-05-10T04:41:09;13.40;99.90
60727;DHT22;46577;49.004;12.120;2023-05-10T04:43:35;13.40;99.90
60727;DHT22;46577;49.004;12.120;2023-05-10T04:46:01;13.30;99.90
60727;DHT22;46577;49.004;12.120;2023-05-10T04:48:27;13.30;99.90
60727;DHT22;46577;49.004;12.120;2023-05-10T04:50:52;13.30;99.90
60727;DHT22;46577;49.004;12.120;2023-05-10T04:53:18;13.30;99.90
60727;DHT22;46577;49.004;12.120;2023-05-10T04:55:44;13.30;99.90
60727;DHT22;46577;49.004;12.120;2023-05-10T04:58:09;13.20;99.90
60727;DHT22;46577;49.004;12.120;2023-05-10T05:00:35;13.10;99.90
60727;DHT22;46577;49.004;12.120;2023-05-10T05:03:01;13.10;99.90
60727;DHT22;46577;49.004;12.120;2023-05-10T05:05:27;13.10;99.90
60727;DHT22;46577;49.004;12.120;2023-05-10T05:07:52;13.00;99.90
60727;DHT22;46577;49.004;12.120;2023-05-10T05:10:18;13.00;99.90
60727;DHT22;46577;49.004;12.120;2023-05-10T05:12:43;13.00;99.90
60727;DHT22;46577;49.004;12.120;2023-05-10T05:15:09;13.00;99.90
60727;DHT22;46577;49.004;12.120;2023-05-10T05:17:36;13.00;99.90
60727;DHT22;46577;49.004;12.120;2023-05-10T05:20:01;13.00;99.90
60727;DHT22;46577;49.004;12.120;2023-05-10T05:22:27;12.80;99.90
60727;DHT22;46577;49.004;12.120;2023-05-10T05:24:56;12.80;99.90
60727;DHT22;46577;49.004;12.120;2023-05-10T05:27:23;12.60;99.90
60727;DHT22;46577;49.004;12.120;2023-05-10T05:29:53;12.70;99.90
60727;DHT22;46577;49.004;12.120;2023-05-10T05:32:19;12.80;99.90
60727;DHT22;46577;49.004;12.120;2023-05-10T05:34:45;12.10;99.90
60727;DHT22;46577;49.004;12.120;2023-05-10T05:37:14;12.90;99.90
60727;DHT22;46577;49.004;12.120;2023-05-10T05:39:40;12.80;99.90
60727;DHT22;46577;49.004;12.120;2023-05-10T05:42:06;12.80;99.90
60727;DHT22;46577;49.004;12.120;2023-05-10T05:44:31;12.70;99.90
60727;DHT22;46577;49.004;12.120;2023-05-10T05:46:57;12.70;99.90
60727;DHT22;46577;49.004;12.120;2023-05-10T05:49:22;12.70;99.90
60727;DHT22;46577;49.004;12.120;2023-05-10T05:51:48;12.80;99.90
60727;DHT22;46577;49.004;12.120;2023-05-10T05:54:15;12.80;99.90
60727;DHT22;46577;49.004;12.120;2023-05-10T05:56:41;12.80;99.90
60727;DHT22;46577;49.004;12.120;2023-05-10T05:59:06;12.80;99.90
60727;DHT22;46577;49.004;12.120;2023-05-10T06:01:32;12.80;99.90
60727;DHT22;46577;49.004;12.120;2023-05-10T06:03:58;12.90;99.90
60727;DHT22;46577;49.004;12.120;2023-05-10T06:06:23;12.80;99.90
60727;DHT22;46577;49.004;12.120;2023-05-10T06:08:49;12.90;99.90
60727;DHT22;46577;49.004;12.120;2023-05-10T06:11:14;13.00;99.90
60727;DHT22;46577;49.004;12.120;2023-05-10T06:13:40;13.00;99.90
60727;DHT22;46577;49.004;12.120;2023-05-10T06:16:07;13.20;99.90
60727;DHT22;46577;49.004;12.120;2023-05-10T06:18:33;13.20;99.90
60727;DHT22;46577;49.004;12.120;2023-05-10T06:20:59;13.30;99.90
60727;DHT22;46577;49.004;12.120;2023-05-10T06:23:24;13.40;99.90
60727;DHT22;46577;49.004;12.120;2023-05-10T06:25:51;13.50;99.90
60727;DHT22;46577;49.004;12.120;2023-05-10T06:28:16;13.40;99.90
60727;DHT22;46577;49.004;12.120;2023-05-10T06:30:42;13.50;99.90
60727;DHT22;46577;49.004;12.120;2023-05-10T06:33:08;13.70;99.90
60727;DHT22;46577;49.004;12.120;2023-05-10T06:35:34;13.80;99.90
60727;DHT22;46577;49.004;12.120;2023-05-10T06:37:59;13.70;99.90
60727;DHT22;46577;49.004;12.120;2023-05-10T06:40:25;13.60;99.90
60727;DHT22;46577;49.004;12.120;2023-05-10T06:42:51;13.80;99.90
60727;DHT22;46577;49.004;12.120;2023-05-10T06:45:17;14.00;99.90
60727;DHT22;46577;49.004;12.120;2023-05-10T06:47:42;13.90;99.90
60727;DHT22;46577;49.004;12.120;2023-05-10T06:50:09;13.90;99.90
60727;DHT22;46577;49.004;12.120;2023-05-10T06:52:35;14.10;99.90
60727;DHT22;46577;49.004;12.120;2023-05-10T06:55:01;14.10;99.90
60727;DHT22;46577;49.004;12.120;2023-05-10T06:57:27;14.30;99.90
60727;DHT22;46577;49.004;12.120;2023-05-10T06:59:52;14.30;99.90
60727;DHT22;46577;49.004;12.120;2023-05-10T07:02:18;14.20;99.90
60727;DHT22;46577;49.004;12.120;2023-05-10T07:04:43;14.30;99.90
60727;DHT22;46577;49.004;12.120;2023-05-10T07:07:09;14.50;99.90
60727;DHT22;46577;49.004;12.120;2023-05-10T07:09:35;14.60;99.90
60727;DHT22;46577;49.004;12.120;2023-05-10T07:12:00;14.60;99.90
60727;DHT22;46577;49.004;12.120;2023-05-10T07:14:27;14.70;99.90
60727;DHT22;46577;49.004;12.120;2023-05-10T07:16:53;14.90;99.90
60727;DHT22;46577;49.004;12.120;2023-05-10T07:19:19;14.90;99.90
60727;DHT22;46577;49.004;12.120;2023-05-10T07:21:45;14.90;99.90
60727;DHT22;46577;49.004;12.120;2023-05-10T07:24:10;14.90;99.90
60727;DHT22;46577;49.004;12.120;2023-05-10T07:26:36;14.80;99.90
60727;DHT22;46577;49.004;12.120;2023-05-10T07:29:02;14.80;99.90
60727;DHT22;46577;49.004;12.120;2023-05-10T07:31:31;14.50;99.90
60727;DHT22;46577;49.004;12.120;2023-05-10T07:33:56;14.60;99.90
60727;DHT22;46577;49.004;12.120;2023-05-10T07:36:22;14.50;99.90
60727;DHT22;46577;49.004;12.120;2023-05-10T07:38:48;14.60;99.90
60727;DHT22;46577;49.004;12.120;2023-05-10T07:41:14;14.80;99.90
60727;DHT22;46577;49.004;12.120;2023-05-10T07:43:40;15.10;99.90
60727;DHT22;46577;49.004;12.120;2023-05-10T07:46:06;15.20;99.90
60727;DHT22;46577;49.004;12.120;2023-05-10T07:48:31;15.40;99.90
60727;DHT22;46577;49.004;12.120;2023-05-10T07:50:57;15.60;99.90
60727;DHT22;46577;49.004;12.120;2023-05-10T07:53:23;15.70;99.90
60727;DHT22;46577;49.004;12.120;2023-05-10T07:55:57;15.90;99.90
60727;DHT22;46577;49.004;12.120;2023-05-10T07:58:23;16.00;99.90
60727;DHT22;46577;49.004;12.120;2023-05-10T08:00:49;16.00;99.90
60727;DHT22;46577;49.004;12.120;2023-05-10T08:03:15;16.20;99.90
60727;DHT22;46577;49.004;12.120;2023-05-10T08:05:41;16.20;99.90
60727;DHT22;46577;49.004;12.120;2023-05-10T08:08:07;16.30;99.90
60727;DHT22;46577;49.004;12.120;2023-05-10T08:10:32;16.50;99.90
60727;DHT22;46577;49.004;12.120;2023-05-10T08:12:58;16.60;99.90
60727;DHT22;46577;49.004;12.120;2023-05-10T08:15:24;16.70;99.90
60727;DHT22;46577;49.004;12.120;2023-05-10T08:17:51;16.50;99.90
60727;DHT22;46577;49.004;12.120;2023-05-10T08:20:17;16.50;99.90
60727;DHT22;46577;49.004;12.120;2023-05-10T08:22:45;16.60;99.90
60727;DHT22;46577;49.004;12.120;2023-05-10T08:25:10;16.70;99.90
60727;DHT22;46577;49.004;12.120;2023-05-10T08:27:36;16.80;99.90
60727;DHT22;46577;49.004;12.120;2023-05-10T08:30:01;17.20;99.90
60727;DHT22;46577;49.004;12.120;2023-05-10T08:32:27;17.50;99.90
60727;DHT22;46577;49.004;12.120;2023-05-10T08:34:53;17.50;99.90
60727;DHT22;46577;49.004;12.120;2023-05-10T08:37:18;17.30;99.90
60727;DHT22;46577;49.004;12.120;2023-05-10T08:39:44;17.30;99.90
60727;DHT22;46577;49.004;12.120;2023-05-10T08:42:16;17.10;99.90
60727;DHT22;46577;49.004;12.120;2023-05-10T08:44:48;17.40;99.90
60727;DHT22;46577;49.004;12.120;2023-05-10T08:47:15;17.40;99.90
60727;DHT22;46577;49.004;12.120;2023-05-10T08:49:41;17.60;99.90
60727;DHT22;46577;49.004;12.120;2023-05-10T08:52:11;17.70;99.90
60727;DHT22;46577;49.004;12.120;2023-05-10T08:54:38;17.70;99.90
60727;DHT22;46577;49.004;12.120;2023-05-10T08:57:04;17.90;99.90
60727;DHT22;46577;49.004;12.120;2023-05-10T08:59:30;18.30;99.90
60727;DHT22;46577;49.004;12.120;2023-05-10T09:01:59;18.60;99.90
60727;DHT22;46577;49.004;12.120;2023-05-10T09:04:26;18.60;99.90
60727;DHT22;46577;49.004;12.120;2023-05-10T09:06:52;18.20;99.90
60727;DHT22;46577;49.004;12.120;2023-05-10T09:09:18;18.20;99.90
60727;DHT22;46577;49.004;12.120;2023-05-10T09:11:44;18.10;99.90
60727;DHT22;46577;49.004;12.120;2023-05-10T09:14:15;18.00;99.90
60727;DHT22;46577;49.004;12.120;2023-05-10T09:16:41;18.20;99.90
60727;DHT22;46577;49.004;12.120;2023-05-10T09:19:07;18.10;99.90
60727;DHT22;46577;49.004;12.120;2023-05-10T09:21:35;17.80;99.90
60727;DHT22;46577;49.004;12.120;2023-05-10T09:24:04;17.80;99.90
60727;DHT22;46577;49.004;12.120;2023-05-10T09:26:30;17.60;99.90
60727;DHT22;46577;49.004;12.120;2023-05-10T09:28:57;17.60;99.90
60727;DHT22;46577;49.004;12.120;2023-05-10T09:31:24;17.60;99.90
60727;DHT22;46577;49.004;12.120;2023-05-10T09:33:53;17.70;99.90
60727;DHT22;46577;49.004;12.120;2023-05-10T09:36:19;17.50;99.90
60727;DHT22;46577;49.004;12.120;2023-05-10T09:38:52;17.40;99.90
60727;DHT22;46577;49.004;12.120;2023-05-10T09:41:24;17.60;99.90
60727;DHT22;46577;49.004;12.120;2023-05-10T09:43:55;17.80;99.90
60727;DHT22;46577;49.004;12.120;2023-05-10T09:46:22;17.90;99.90
60727;DHT22;46577;49.004;12.120;2023-05-10T09:48:50;18.00;99.90
60727;DHT22;46577;49.004;12.120;2023-05-10T09:51:19;18.10;99.90
60727;DHT22;46577;49.004;12.120;2023-05-10T09:53:45;18.30;99.90
60727;DHT22;46577;49.004;12.120;2023-05-10T09:56:11;18.50;99.90
60727;DHT22;46577;49.004;12.120;2023-05-10T09:58:37;18.70;99.90
60727;DHT22;46577;49.004;12.120;2023-05-10T10:01:11;18.90;99.90
60727;DHT22;46577;49.004;12.120;2023-05-10T10:03:42;19.30;99.90
60727;DHT22;46577;49.004;12.120;2023-05-10T10:06:08;19.80;99.90
60727;DHT22;46577;49.004;12.120;2023-05-10T10:08:34;19.90;99.90
60727;DHT22;46577;49.004;12.120;2023-05-10T10:11:00;20.10;99.90
60727;DHT22;46577;49.004;12.120;2023-05-10T10:13:26;20.10;99.90
60727;DHT22;46577;49.004;12.120;2023-05-10T10:15:52;20.20;99.90
60727;DHT22;46577;49.004;12.120;2023-05-10T10:18:19;20.20;99.90
60727;DHT22;46577;49.004;12.120;2023-05-10T10:20:49;20.00;99.90
60727;DHT22;46577;49.004;12.120;2023-05-10T10:23:15;20.00;99.90
60727;DHT22;46577;49.004;12.120;2023-05-10T10:25:40;20.20;99.10
60727;DHT22;46577;49.004;12.120;2023-05-10T10:28:24;20.50;99.10
60727;DHT22;46577;49.004;12.120;2023-05-10T10:30:52;21.00;98.00
60727;DHT22;46577;49.004;12.120;2023-05-10T10:36:02;22.40;95.70
60727;DHT22;46577;49.004;12.120;2023-05-10T10:41:36;23.60;92.10
60727;DHT22;46577;49.004;12.120;2023-05-10T10:44:33;24.80;92.10
60727;DHT22;46577;49.004;12.120;2023-05-10T10:47:06;25.80;84.40
60727;DHT22;46577;49.004;12.120;2023-05-10T10:55:09;26.70;76.60
60727;DHT22;46577;49.004;12.120;2023-05-10T11:02:47;28.00;65.10
60727;DHT22;46577;49.004;12.120;2023-05-10T11:07:54;26.60;68.00
60727;DHT22;46577;49.004;12.120;2023-05-10T11:10:24;25.80;70.20
60727;DHT22;46577;49.004;12.120;2023-05-10T11:12:52;24.60;71.20
60727;DHT22;46577;49.004;12.120;2023-05-10T11:15:19;24.20;71.50
60727;DHT22;46577;49.004;12.120;2023-05-10T11:17:45;23.50;77.60
60727;DHT22;46577;49.004;12.120;2023-05-10T11:20:17;23.00;80.80
60727;DHT22;46577;49.004;12.120;2023-05-10T11:22:51;23.50;79.40
60727;DHT22;46577;49.004;12.120;2023-05-10T11:25:17;24.10;76.90
60727;DHT22;46577;49.004;12.120;2023-05-10T11:27:43;24.30;74.10
60727;DHT22;46577;49.004;12.120;2023-05-10T11:30:10;24.50;73.70
60727;DHT22;46577;49.004;12.120;2023-05-10T11:32:40;25.00;71.60
60727;DHT22;46577;49.004;12.120;2023-05-10T11:35:10;25.60;72.50
60727;DHT22;46577;49.004;12.120;2023-05-10T11:37:36;26.00;71.40
60727;DHT22;46577;49.004;12.120;2023-05-10T11:40:01;26.00;69.90
60727;DHT22;46577;49.004;12.120;2023-05-10T11:42:28;26.00;68.70
60727;DHT22;46577;49.004;12.120;2023-05-10T11:44:54;25.10;68.00
60727;DHT22;46577;49.004;12.120;2023-05-10T11:47:19;24.90;68.10
60727;DHT22;46577;49.004;12.120;2023-05-10T11:49:46;24.30;68.90
60727;DHT22;46577;49.004;12.120;2023-05-10T11:52:12;23.60;71.60
60727;DHT22;46577;49.004;12.120;2023-05-10T11:54:37;23.50;70.90
60727;DHT22;46577;49.004;12.120;2023-05-10T11:57:03;23.00;71.50
60727;DHT22;46577;49.004;12.120;2023-05-10T11:59:29;22.80;73.80
60727;DHT22;46577;49.004;12.120;2023-05-10T12:01:55;22.50;77.70
60727;DHT22;46577;49.004;12.120;2023-05-10T12:04:21;22.40;75.20
60727;DHT22;46577;49.004;12.120;2023-05-10T12:06:47;22.40;74.70
60727;DHT22;46577;49.004;12.120;2023-05-10T12:09:12;22.50;76.10
60727;DHT22;46577;49.004;12.120;2023-05-10T12:11:39;22.40;75.70
60727;DHT22;46577;49.004;12.120;2023-05-10T12:14:05;22.50;75.90
60727;DHT22;46577;49.004;12.120;2023-05-10T12:16:33;22.60;73.60
60727;DHT22;46577;49.004;12.120;2023-05-10T12:19:00;22.80;74.20
60727;DHT22;46577;49.004;12.120;2023-05-10T12:21:28;22.90;75.00
60727;DHT22;46577;49.004;12.120;2023-05-10T12:23:59;22.90;74.20
60727;DHT22;46577;49.004;12.120;2023-05-10T12:26:28;23.00;75.40
60727;DHT22;46577;49.004;12.120;2023-05-10T12:28:54;23.40;74.30
60727;DHT22;46577;49.004;12.120;2023-05-10T12:31:20;23.60;71.60
60727;DHT22;46577;49.004;12.120;2023-05-10T12:33:46;23.60;71.90
60727;DHT22;46577;49.004;12.120;2023-05-10T12:36:15;23.10;74.00
60727;DHT22;46577;49.004;12.120;2023-05-10T12:38:42;23.00;76.60
60727;DHT22;46577;49.004;12.120;2023-05-10T12:41:18;22.50;76.80
60727;DHT22;46577;49.004;12.120;2023-05-10T12:43:44;22.30;80.60
60727;DHT22;46577;49.004;12.120;2023-05-10T12:46:12;21.40;87.10
60727;DHT22;46577;49.004;12.120;2023-05-10T12:48:39;20.80;91.50
60727;DHT22;46577;49.004;12.120;2023-05-10T12:51:06;20.30;93.10
60727;DHT22;46577;49.004;12.120;2023-05-10T12:53:37;20.20;94.00
60727;DHT22;46577;49.004;12.120;2023-05-10T12:56:03;20.00;95.70
60727;DHT22;46577;49.004;12.120;2023-05-10T12:58:28;19.60;97.80
60727;DHT22;46577;49.004;12.120;2023-05-10T13:00:54;19.50;99.60
60727;DHT22;46577;49.004;12.120;2023-05-10T13:03:21;19.30;99.90
60727;DHT22;46577;49.004;12.120;2023-05-10T13:05:47;19.10;99.90
60727;DHT22;46577;49.004;12.120;2023-05-10T13:08:13;19.00;99.90
60727;DHT22;46577;49.004;12.120;2023-05-10T13:10:39;19.10;99.90
60727;DHT22;46577;49.004;12.120;2023-05-10T13:13:04;19.20;99.90
60727;DHT22;46577;49.004;12.120;2023-05-10T13:15:30;19.10;99.90
60727;DHT22;46577;49.004;12.120;2023-05-10T13:17:56;19.00;99.90
60727;DHT22;46577;49.004;12.120;2023-05-10T13:20:21;19.00;99.90
60727;DHT22;46577;49.004;12.120;2023-05-10T13:22:47;18.90;99.90
60727;DHT22;46577;49.004;12.120;2023-05-10T13:25:13;18.80;99.90
60727;DHT22;46577;49.004;12.120;2023-05-10T13:27:41;18.80;99.90
60727;DHT22;46577;49.004;12.120;2023-05-10T13:30:08;18.80;99.90
60727;DHT22;46577;49.004;12.120;2023-05-10T13:32:34;18.90;99.90
60727;DHT22;46577;49.004;12.120;2023-05-10T13:35:00;18.60;99.90
60727;DHT22;46577;49.004;12.120;2023-05-10T13:37:26;18.70;99.90
60727;DHT22;46577;49.004;12.120;2023-05-10T13:39:51;18.60;99.90
60727;DHT22;46577;49.004;12.120;2023-05-10T13:42:17;18.60;99.90
60727;DHT22;46577;49.004;12.120;2023-05-10T13:44:43;18.70;99.90
60727;DHT22;46577;49.004;12.120;2023-05-10T13:47:09;18.60;99.90
60727;DHT22;46577;49.004;12.120;2023-05-10T13:49:35;18.30;99.90
60727;DHT22;46577;49.004;12.120;2023-05-10T13:52:01;18.10;99.90
60727;DHT22;46577;49.004;12.120;2023-05-10T13:54:32;18.00;99.90
60727;DHT22;46577;49.004;12.120;2023-05-10T13:56:58;17.90;99.90
60727;DHT22;46577;49.004;12.120;2023-05-10T13:59:24;17.80;99.90
60727;DHT22;46577;49.004;12.120;2023-05-10T14:01:50;17.70;99.90
60727;DHT22;46577;49.004;12.120;2023-05-10T14:04:15;17.70;99.90
60727;DHT22;46577;49.004;12.120;2023-05-10T14:06:41;17.60;99.90
60727;DHT22;46577;49.004;12.120;2023-05-10T14:09:07;17.40;99.90
60727;DHT22;46577;49.004;12.120;2023-05-10T14:11:32;17.20;99.90
60727;DHT22;46577;49.004;12.120;2023-05-10T14:13:58;17.20;99.90
60727;DHT22;46577;49.004;12.120;2023-05-10T14:16:24;17.20;99.90
60727;DHT22;46577;49.004;12.120;2023-05-10T14:18:49;17.20;99.90
60727;DHT22;46577;49.004;12.120;2023-05-10T14:21:15;17.10;99.90
60727;DHT22;46577;49.004;12.120;2023-05-10T14:23:40;17.20;99.90
60727;DHT22;46577;49.004;12.120;2023-05-10T14:26:06;17.20;99.90
60727;DHT22;46577;49.004;12.120;2023-05-10T14:28:32;17.40;99.90
60727;DHT22;46577;49.004;12.120;2023-05-10T14:30:58;17.30;99.90
60727;DHT22;46577;49.004;12.120;2023-05-10T14:33:24;17.20;99.90
60727;DHT22;46577;49.004;12.120;2023-05-10T14:35:50;17.20;99.90
60727;DHT22;46577;49.004;12.120;2023-05-10T14:38:16;17.10;99.90
60727;DHT22;46577;49.004;12.120;2023-05-10T14:40:41;17.30;99.90
60727;DHT22;46577;49.004;12.120;2023-05-10T14:43:08;17.30;99.90
60727;DHT22;46577;49.004;12.120;2023-05-10T14:45:34;17.40;99.90
60727;DHT22;46577;49.004;12.120;2023-05-10T14:48:00;17.20;99.90
60727;DHT22;46577;49.004;12.120;2023-05-10T14:50:26;17.10;99.90
60727;DHT22;46577;49.004;12.120;2023-05-10T14:52:52;17.20;99.90
60727;DHT22;46577;49.004;12.120;2023-05-10T14:55:17;17.20;99.90
60727;DHT22;46577;49.004;12.120;2023-05-10T14:57:43;17.10;99.90
60727;DHT22;46577;49.004;12.120;2023-05-10T15:00:10;17.10;99.90
60727;DHT22;46577;49.004;12.120;2023-05-10T15:02:35;16.90;99.90
60727;DHT22;46577;49.004;12.120;2023-05-10T15:05:02;16.80;99.90
60727;DHT22;46577;49.004;12.120;2023-05-10T15:07:27;16.80;99.90
60727;DHT22;46577;49.004;12.120;2023-05-10T15:09:53;16.80;99.90
60727;DHT22;46577;49.004;12.120;2023-05-10T15:12:19;16.70;99.90
60727;DHT22;46577;49.004;12.120;2023-05-10T15:14:45;16.70;99.90
60727;DHT22;46577;49.004;12.120;2023-05-10T15:17:11;16.70;99.90
60727;DHT22;46577;49.004;12.120;2023-05-10T15:19:36;16.70;99.90
60727;DHT22;46577;49.004;12.120;2023-05-10T15:22:03;16.90;99.90
60727;DHT22;46577;49.004;12.120;2023-05-10T15:24:30;16.90;99.90
60727;DHT22;46577;49.004;12.120;2023-05-10T15:26:55;17.00;99.90
60727;DHT22;46577;49.004;12.120;2023-05-10T15:29:21;16.90;99.90
60727;DHT22;46577;49.004;12.120;2023-05-10T15:31:47;16.60;99.90
60727;DHT22;46577;49.004;12.120;2023-05-10T15:34:13;16.50;99.90
60727;DHT22;46577;49.004;12.120;2023-05-10T15:36:39;16.50;99.90
60727;DHT22;46577;49.004;12.120;2023-05-10T15:39:05;16.40;99.90
60727;DHT22;46577;49.004;12.120;2023-05-10T15:41:30;16.50;99.90
60727;DHT22;46577;49.004;12.120;2023-05-10T15:43:57;16.60;99.90
60727;DHT22;46577;49.004;12.120;2023-05-10T15:46:25;16.60;99.90
60727;DHT22;46577;49.004;12.120;2023-05-10T15:48:51;16.60;99.90
60727;DHT22;46577;49.004;12.120;2023-05-10T15:51:17;16.70;99.90
60727;DHT22;46577;49.004;12.120;2023-05-10T15:53:44;16.70;99.90
60727;DHT22;46577;49.004;12.120;2023-05-10T15:56:10;16.70;99.90